sensor_id;sensor_type;location;lat;lon;timestamp;temperature;humidity
3794;DHT22;1912;51.358;12.282;2023-07-31T03:47:16;16.50;1.00
3794;DHT22;1912;51.358;12.282;2023-07-31T03:49:41;16.40;1.00
3794;DHT22;1912;51.358;12.282;2023-07-31T03:52:07;16.40;1.00
3794;DHT22;1912;51.358;12.282;2023-07-31T03:54:33;16.40;1.00
3794;DHT22;1912;51.358;12.282;2023-07-31T03:56:58;16.40;1.00
3794;DHT22;1912;51.358;12.282;2023-07-31T03:59:24;16.40;1.00
3794;DHT22;1912;51.358;12.282;2023-07-31T04:01:50;16.40;1.00
3794;DHT22;1912;51.358;12.282;2023-07-31T04:04:15;16.40;1.00
3794;DHT22;1912;51.358;12.282;2023-07-31T04:06:41;16.40;1.00
3794;DHT22;1912;51.358;12.282;2023-07-31T04:09:06;16.40;1.00
3794;DHT22;1912;51.358;12.282;2023-07-31T04:11:32;16.40;1.00
3794;DHT22;1912;51.358;12.282;2023-07-31T04:13:58;16.40;1.00
3794;DHT22;1912;51.358;12.282;2023-07-31T04:16:24;16.40;1.00
3794;DHT22;1912;51.358;12.282;2023-07-31T04:18:49;16.40;1.00
3794;DHT22;1912;51.358;12.282;2023-07-31T04:21:15;16.40;1.00
3794;DHT22;1912;51.358;12.282;2023-07-31T04:23:41;16.40;1.00
3794;DHT22;1912;51.358;12.282;2023-07-31T04:26:06;16.40;1.00
3794;DHT22;1912;51.358;12.282;2023-07-31T04:28:32;16.40;1.00
3794;DHT22;1912;51.358;12.282;2023-07-31T04:30:58;16.40;1.00
3794;DHT22;1912;51.358;12.282;2023-07-31T04:33:24;16.50;1.00
3794;DHT22;1912;51.358;12.282;2023-07-31T04:35:51;16.50;1.00
3794;DHT22;1912;51.358;12.282;2023-07-31T04:38:18;16.50;1.00
3794;DHT22;1912;51.358;12.282;2023-07-31T04:40:44;16.50;1.00
3794;DHT22;1912;51.358;12.282;2023-07-31T04:43:10;16.50;1.00
3794;DHT22;1912;51.358;12.282;2023-07-31T04:45:36;16.40;1.00
3794;DHT22;1912;51.358;12.282;2023-07-31T04:48:02;16.30;1.00
3794;DHT22;1912;51.358;12.282;2023-07-31T04:50:27;16.40;1.00
3794;DHT22;1912;51.358;12.282;2023-07-31T04:52:53;16.20;1.00
3794;DHT22;1912;51.358;12.282;2023-07-31T04:55:19;16.20;1.00
3794;DHT22;1912;51.358;12.282;2023-07-31T04:57:44;16.10;1.00
3794;DHT22;1912;51.358;12.282;2023-07-31T05:00:10;16.10;1.00
3794;DHT22;1912;51.358;12.282;2023-07-31T05:02:36;16.10;1.00
3794;DHT22;1912;51.358;12.282;2023-07-31T05:05:02;16.00;1.00
3794;DHT22;1912;51.358;12.282;2023-07-31T05:07:28;16.10;1.00
3794;DHT22;1912;51.358;12.282;2023-07-31T05:09:53;16.10;1.00
3794;DHT22;1912;51.358;12.282;2023-07-31T05:12:19;16.10;1.00
3794;DHT22;1912;51.358;12.282;2023-07-31T05:14:45;16.00;1.00
3794;DHT22;1912;51.358;12.282;2023-07-31T05:17:10;16.00;1.00
3794;DHT22;1912;51.358;12.282;2023-07-31T05:19:36;15.90;1.00
3794;DHT22;1912;51.358;12.282;2023-07-31T05:22:02;15.90;1.00
3794;DHT22;1912;51.358;12.282;2023-07-31T05:24:27;15.90;1.00
3794;DHT22;1912;51.358;12.282;2023-07-31T05:26:53;15.80;1.00
3794;DHT22;1912;51.358;12.282;2023-07-31T05:29:19;15.90;1.00
3794;DHT22;1912;51.358;12.282;2023-07-31T05:31:44;15.90;1.00
3794;DHT22;1912;51.358;12.282;2023-07-31T05:34:10;15.90;1.00
3794;DHT22;1912;51.358;12.282;2023-07-31T05:36:36;15.90;1.00
3794;DHT22;1912;51.358;12.282;2023-07-31T05:39:01;15.90;1.00
3794;DHT22;1912;51.358;12.282;2023-07-31T05:41:31;15.90;1.00
3794;DHT22;1912;51.358;12.282;2023-07-31T05:43:57;16.00;1.00
3794;DHT22;1912;51.358;12.282;2023-07-31T05:46:23;16.10;1.00
3794;DHT22;1912;51.358;12.282;2023-07-31T05:48:48;16.10;1.00
3794;DHT22;1912;51.358;12.282;2023-07-31T05:51:14;16.00;1.00
3794;DHT22;1912;51.358;12.282;2023-07-31T05:53:40;16.10;1.00
3794;DHT22;1912;51.358;12.282;2023-07-31T05:56:06;16.20;1.00
3794;DHT22;1912;51.358;12.282;2023-07-31T05:58:32;16.20;1.00
3794;DHT22;1912;51.358;12.282;2023-07-31T06:00:57;16.20;1.00
3794;DHT22;1912;51.358;12.282;2023-07-31T06:03:23;16.20;1.00
3794;DHT22;1912;51.358;12.282;2023-07-31T06:05:48;16.30;1.00
3794;DHT22;1912;51.358;12.282;2023-07-31T06:08:14;16.30;1.00
3794;DHT22;1912;51.358;12.282;2023-07-31T06:10:40;16.40;1.00
3794;DHT22;1912;51.358;12.282;2023-07-31T06:13:06;16.40;1.00
3794;DHT22;1912;51.358;12.282;2023-07-31T06:15:31;16.40;1.00
3794;DHT22;1912;51.358;12.282;2023-07-31T06:17:57;16.40;1.00
3794;DHT22;1912;51.358;12.282;2023-07-31T06:20:23;16.50;1.00
3794;DHT22;1912;51.358;12.282;2023-07-31T06:22:48;16.60;1.00
3794;DHT22;1912;51.358;12.282;2023-07-31T06:25:14;16.60;1.00
3794;DHT22;1912;51.358;12.282;2023-07-31T06:27:40;16.60;1.00
3794;DHT22;1912;51.358;12.282;2023-07-31T06:30:06;16.70;1.00
3794;DHT22;1912;51.358;12.282;2023-07-31T06:32:32;16.70;1.00
3794;DHT22;1912;51.358;12.282;2023-07-31T06:34:58;16.80;1.00
3794;DHT22;1912;51.358;12.282;2023-07-31T06:37:23;16.90;1.00
3794;DHT22;1912;51.358;12.282;2023-07-31T06:39:49;16.90;1.00
3794;DHT22;1912;51.358;12.282;2023-07-31T06:42:15;17.00;1.00
3794;DHT22;1912;51.358;12.282;2023-07-31T06:44:40;17.00;1.00
3794;DHT22;1912;51.358;12.282;2023-07-31T06:47:09;17.00;1.00
3794;DHT22;1912;51.358;12.282;2023-07-31T06:49:34;17.10;1.00
3794;DHT22;1912;51.358;12.282;2023-07-31T06:52:00;17.10;1.00
3794;DHT22;1912;51.358;12.282;2023-07-31T06:54:26;17.10;1.00
3794;DHT22;1912;51.358;12.282;2023-07-31T06:56:51;17.10;1.00
3794;DHT22;1912;51.358;12.282;2023-07-31T06:59:17;17.20;1.00
3794;DHT22;1912;51.358;12.282;2023-07-31T07:01:43;17.20;1.00
3794;DHT22;1912;51.358;12.282;2023-07-31T07:04:08;17.20;1.00
3794;DHT22;1912;51.358;12.282;2023-07-31T07:06:34;17.30;1.00
3794;DHT22;1912;51.358;12.282;2023-07-31T07:09:00;17.30;1.00
3794;DHT22;1912;51.358;12.282;2023-07-31T07:11:25;17.40;1.00
3794;DHT22;1912;51.358;12.282;2023-07-31T07:13:51;17.40;1.00
3794;DHT22;1912;51.358;12.282;2023-07-31T07:16:17;17.40;1.00
3794;DHT22;1912;51.358;12.282;2023-07-31T07:18:43;17.50;1.00
3794;DHT22;1912;51.358;12.282;2023-07-31T07:21:08;17.60;1.00
3794;DHT22;1912;51.358;12.282;2023-07-31T07:23:34;17.50;1.00
3794;DHT22;1912;51.358;12.282;2023-07-31T07:26:00;17.60;1.00
3794;DHT22;1912;51.358;12.282;2023-07-31T07:28:25;17.60;1.00
3794;DHT22;1912;51.358;12.282;2023-07-31T07:30:52;17.60;1.00
3794;DHT22;1912;51.358;12.282;2023-07-31T07:33:20;17.70;1.00
3794;DHT22;1912;51.358;12.282;2023-07-31T07:35:46;17.70;1.00
3794;DHT22;1912;51.358;12.282;2023-07-31T07:38:14;17.70;1.00
3794;DHT22;1912;51.358;12.282;2023-07-31T07:40:40;17.70;1.00
3794;DHT22;1912;51.358;12.282;2023-07-31T07:43:06;17.80;1.00
3794;DHT22;1912;51.358;12.282;2023-07-31T07:45:32;17.90;1.00
3794;DHT22;1912;51.358;12.282;2023-07-31T07:47:58;17.90;1.00
3794;DHT22;1912;51.358;12.282;2023-07-31T07:50:24;17.90;1.00
3794;DHT22;1912;51.358;12.282;2023-07-31T07:52:50;18.00;1.00
3794;DHT22;1912;51.358;12.282;2023-07-31T07:55:16;18.00;1.00
3794;DHT22;1912;51.358;12.282;2023-07-31T07:57:42;18.00;1.00
3794;DHT22;1912;51.358;12.282;2023-07-31T08:00:09;18.00;1.00
3794;DHT22;1912;51.358;12.282;2023-07-31T08:02:36;18.10;1.00
3794;DHT22;1912;51.358;12.282;2023-07-31T08:05:01;18.10;1.00
3794;DHT22;1912;51.358;12.282;2023-07-31T08:07:27;18.10;1.00
3794;DHT22;1912;51.358;12.282;2023-07-31T08:09:53;18.10;1.00
3794;DHT22;1912;51.358;12.282;2023-07-31T08:12:19;18.10;1.00
3794;DHT22;1912;51.358;12.282;2023-07-31T08:14:44;18.20;1.00
3794;DHT22;1912;51.358;12.282;2023-07-31T08:17:10;18.20;1.00
3794;DHT22;1912;51.358;12.282;2023-07-31T08:19:36;18.30;1.00
3794;DHT22;1912;51.358;12.282;2023-07-31T08:22:01;18.40;1.00
3794;DHT22;1912;51.358;12.282;2023-07-31T08:24:27;18.40;1.00
3794;DHT22;1912;51.358;12.282;2023-07-31T08:26:53;18.50;1.00
3794;DHT22;1912;51.358;12.282;2023-07-31T08:29:18;18.70;1.00
3794;DHT22;1912;51.358;12.282;2023-07-31T08:31:44;18.80;1.00
3794;DHT22;1912;51.358;12.282;2023-07-31T08:34:10;18.80;1.00
3794;DHT22;1912;51.358;12.282;2023-07-31T08:36:35;18.90;1.00
3794;DHT22;1912;51.358;12.282;2023-07-31T08:39:01;19.10;1.00
3794;DHT22;1912;51.358;12.282;2023-07-31T08:41:27;19.20;1.00
3794;DHT22;1912;51.358;12.282;2023-07-31T08:43:55;19.20;1.00
3794;DHT22;1912;51.358;12.282;2023-07-31T08:46:21;19.10;1.00
3794;DHT22;1912;51.358;12.282;2023-07-31T08:48:47;19.20;1.00
3794;DHT22;1912;51.358;12.282;2023-07-31T08:51:14;19.20;1.00
3794;DHT22;1912;51.358;12.282;2023-07-31T08:53:40;19.20;1.00
3794;DHT22;1912;51.358;12.282;2023-07-31T08:56:06;19.20;1.00
3794;DHT22;1912;51.358;12.282;2023-07-31T08:58:33;19.20;1.00
3794;DHT22;1912;51.358;12.282;2023-07-31T09:01:04;19.30;1.00
3794;DHT22;1912;51.358;12.282;2023-07-31T09:03:34;19.20;1.00
3794;DHT22;1912;51.358;12.282;2023-07-31T09:06:03;19.30;1.00
3794;DHT22;1912;51.358;12.282;2023-07-31T09:08:32;19.30;1.00
3794;DHT22;1912;51.358;12.282;2023-07-31T09:11:01;19.30;1.00
3794;DHT22;1912;51.358;12.282;2023-07-31T09:13:31;19.20;1.00
3794;DHT22;1912;51.358;12.282;2023-07-31T09:15:57;19.10;1.00
3794;DHT22;1912;51.358;12.282;2023-07-31T09:18:23;19.00;1.00
3794;DHT22;1912;51.358;12.282;2023-07-31T09:21:07;19.00;1.00
3794;DHT22;1912;51.358;12.282;2023-07-31T09:23:44;19.00;1.00
3794;DHT22;1912;51.358;12.282;2023-07-31T09:26:11;19.10;1.00
3794;DHT22;1912;51.358;12.282;2023-07-31T09:28:37;19.10;1.00
3794;DHT22;1912;51.358;12.282;2023-07-31T09:31:02;19.00;1.00
3794;DHT22;1912;51.358;12.282;2023-07-31T09:33:28;19.00;1.00
3794;DHT22;1912;51.358;12.282;2023-07-31T09:35:54;19.00;1.00
3794;DHT22;1912;51.358;12.282;2023-07-31T09:38:19;19.10;1.00
3794;DHT22;1912;51.358;12.282;2023-07-31T09:40:47;19.10;1.00
3794;DHT22;1912;51.358;12.282;2023-07-31T09:43:17;19.10;1.00
3794;DHT22;1912;51.358;12.282;2023-07-31T09:45:45;19.10;1.00
3794;DHT22;1912;51.358;12.282;2023-07-31T09:48:16;19.20;1.00
3794;DHT22;1912;51.358;12.282;2023-07-31T09:50:46;19.20;1.00
3794;DHT22;1912;51.358;12.282;2023-07-31T09:53:14;19.30;1.00
3794;DHT22;1912;51.358;12.282;2023-07-31T09:55:41;19.30;1.00
3794;DHT22;1912;51.358;12.282;2023-07-31T09:58:12;19.40;1.00
3794;DHT22;1912;51.358;12.282;2023-07-31T10:00:39;19.40;1.00
3794;DHT22;1912;51.358;12.282;2023-07-31T10:03:06;19.10;1.00
3794;DHT22;1912;51.358;12.282;2023-07-31T10:05:48;19.00;1.00
3794;DHT22;1912;51.358;12.282;2023-07-31T10:08:16;19.00;1.00
3794;DHT22;1912;51.358;12.282;2023-07-31T10:10:45;19.20;1.00
3794;DHT22;1912;51.358;12.282;2023-07-31T10:13:13;19.40;1.00
3794;DHT22;1912;51.358;12.282;2023-07-31T10:15:39;19.70;1.00
3794;DHT22;1912;51.358;12.282;2023-07-31T10:18:07;20.00;1.00
3794;DHT22;1912;51.358;12.282;2023-07-31T10:20:33;20.30;1.00
3794;DHT22;1912;51.358;12.282;2023-07-31T10:22:59;20.30;1.00
3794;DHT22;1912;51.358;12.282;2023-07-31T10:25:26;20.30;1.00
3794;DHT22;1912;51.358;12.282;2023-07-31T10:27:53;20.30;1.00
3794;DHT22;1912;51.358;12.282;2023-07-31T10:30:22;20.40;1.00
3794;DHT22;1912;51.358;12.282;2023-07-31T10:32:51;20.30;1.00
3794;DHT22;1912;51.358;12.282;2023-07-31T10:35:18;20.30;1.00
3794;DHT22;1912;51.358;12.282;2023-07-31T10:37:47;20.30;1.00
3794;DHT22;1912;51.358;12.282;2023-07-31T10:40:27;20.30;1.00
3794;DHT22;1912;51.358;12.282;2023-07-31T10:42:54;20.40;1.00
3794;DHT22;1912;51.358;12.282;2023-07-31T10:45:34;20.70;1.00
3794;DHT22;1912;51.358;12.282;2023-07-31T10:48:06;20.70;1.00
3794;DHT22;1912;51.358;12.282;2023-07-31T10:50:38;20.80;1.00
3794;DHT22;1912;51.358;12.282;2023-07-31T10:53:22;20.60;1.00
3794;DHT22;1912;51.358;12.282;2023-07-31T10:55:49;20.90;1.00
3794;DHT22;1912;51.358;12.282;2023-07-31T10:58:18;21.30;1.00
3794;DHT22;1912;51.358;12.282;2023-07-31T11:00:46;21.30;1.00
3794;DHT22;1912;51.358;12.282;2023-07-31T11:03:17;21.20;1.00
3794;DHT22;1912;51.358;12.282;2023-07-31T11:05:47;21.20;1.00
3794;DHT22;1912;51.358;12.282;2023-07-31T11:13:50;21.40;1.00
3794;DHT22;1912;51.358;12.282;2023-07-31T11:16:24;21.90;1.00
3794;DHT22;1912;51.358;12.282;2023-07-31T11:18:51;22.00;1.00
3794;DHT22;1912;51.358;12.282;2023-07-31T11:21:19;21.70;1.00
3794;DHT22;1912;51.358;12.282;2023-07-31T11:23:50;21.90;1.00
3794;DHT22;1912;51.358;12.282;2023-07-31T11:26:17;22.00;1.00
3794;DHT22;1912;51.358;12.282;2023-07-31T11:28:46;21.90;1.00
3794;DHT22;1912;51.358;12.282;2023-07-31T11:31:13;21.90;1.00
3794;DHT22;1912;51.358;12.282;2023-07-31T11:33:38;22.00;1.00
3794;DHT22;1912;51.358;12.282;2023-07-31T11:36:04;21.90;1.00
3794;DHT22;1912;51.358;12.282;2023-07-31T11:38:32;22.20;1.00
3794;DHT22;1912;51.358;12.282;2023-07-31T11:41:03;22.40;1.00
3794;DHT22;1912;51.358;12.282;2023-07-31T11:43:32;22.20;1.00
3794;DHT22;1912;51.358;12.282;2023-07-31T11:45:59;22.20;1.00
3794;DHT22;1912;51.358;12.282;2023-07-31T11:48:31;22.10;1.00
3794;DHT22;1912;51.358;12.282;2023-07-31T11:51:04;21.80;1.00
3794;DHT22;1912;51.358;12.282;2023-07-31T11:53:38;21.90;1.00
3794;DHT22;1912;51.358;12.282;2023-07-31T11:56:04;21.90;1.00
3794;DHT22;1912;51.358;12.282;2023-07-31T11:58:33;21.80;1.00
3794;DHT22;1912;51.358;12.282;2023-07-31T12:01:00;21.60;1.00
3794;DHT22;1912;51.358;12.282;2023-07-31T12:03:26;21.50;1.00
3794;DHT22;1912;51.358;12.282;2023-07-31T12:05:55;21.50;1.00
3794;DHT22;1912;51.358;12.282;2023-07-31T12:08:23;21.40;1.00
3794;DHT22;1912;51.358;12.282;2023-07-31T12:10:53;21.40;1.00
3794;DHT22;1912;51.358;12.282;2023-07-31T12:13:21;21.60;1.00
3794;DHT22;1912;51.358;12.282;2023-07-31T12:15:59;21.70;1.00
3794;DHT22;1912;51.358;12.282;2023-07-31T12:18:29;21.60;1.00
3794;DHT22;1912;51.358;12.282;2023-07-31T12:21:00;21.70;1.00
3794;DHT22;1912;51.358;12.282;2023-07-31T12:23:28;21.70;1.00
3794;DHT22;1912;51.358;12.282;2023-07-31T12:26:22;21.60;1.00
3794;DHT22;1912;51.358;12.282;2023-07-31T12:28:50;21.70;1.00
3794;DHT22;1912;51.358;12.282;2023-07-31T12:31:21;21.90;1.00
3794;DHT22;1912;51.358;12.282;2023-07-31T12:33:50;21.80;1.00
3794;DHT22;1912;51.358;12.282;2023-07-31T12:36:21;22.20;1.00
3794;DHT22;1912;51.358;12.282;2023-07-31T12:38:49;22.60;1.00
3794;DHT22;1912;51.358;12.282;2023-07-31T12:41:15;22.40;1.00
3794;DHT22;1912;51.358;12.282;2023-07-31T12:43:42;22.20;1.00
3794;DHT22;1912;51.358;12.282;2023-07-31T12:46:09;22.30;1.00
3794;DHT22;1912;51.358;12.282;2023-07-31T12:48:36;22.50;1.00
3794;DHT22;1912;51.358;12.282;2023-07-31T12:51:02;22.60;1.00
3794;DHT22;1912;51.358;12.282;2023-07-31T12:53:28;22.90;1.00
3794;DHT22;1912;51.358;12.282;2023-07-31T12:55:55;23.00;1.00
3794;DHT22;1912;51.358;12.282;2023-07-31T12:58:21;23.10;1.00
3794;DHT22;1912;51.358;12.282;2023-07-31T13:00:47;22.70;1.00
3794;DHT22;1912;51.358;12.282;2023-07-31T13:03:13;22.90;1.00
3794;DHT22;1912;51.358;12.282;2023-07-31T13:05:38;23.00;1.00
3794;DHT22;1912;51.358;12.282;2023-07-31T13:08:04;23.00;1.00
3794;DHT22;1912;51.358;12.282;2023-07-31T13:10:30;23.10;1.00
3794;DHT22;1912;51.358;12.282;2023-07-31T13:12:56;23.90;1.00
3794;DHT22;1912;51.358;12.282;2023-07-31T13:15:22;24.00;1.00
3794;DHT22;1912;51.358;12.282;2023-07-31T13:17:47;24.00;1.00
3794;DHT22;1912;51.358;12.282;2023-07-31T13:20:13;23.60;1.00
3794;DHT22;1912;51.358;12.282;2023-07-31T13:22:39;23.60;1.00
3794;DHT22;1912;51.358;12.282;2023-07-31T13:25:05;23.60;1.00
3794;DHT22;1912;51.358;12.282;2023-07-31T13:27:31;23.80;1.00
3794;DHT22;1912;51.358;12.282;2023-07-31T13:29:57;24.00;1.00
3794;DHT22;1912;51.358;12.282;2023-07-31T13:32:23;24.20;1.00
3794;DHT22;1912;51.358;12.282;2023-07-31T13:34:49;23.70;1.00
3794;DHT22;1912;51.358;12.282;2023-07-31T13:37:15;23.60;1.00
3794;DHT22;1912;51.358;12.282;2023-07-31T13:39:41;23.50;1.00
3794;DHT22;1912;51.358;12.282;2023-07-31T13:42:08;23.50;1.00
3794;DHT22;1912;51.358;12.282;2023-07-31T13:44:37;23.00;1.00
3794;DHT22;1912;51.358;12.282;2023-07-31T13:47:03;22.80;1.00
3794;DHT22;1912;51.358;12.282;2023-07-31T13:49:29;22.70;1.00
3794;DHT22;1912;51.358;12.282;2023-07-31T13:51:56;22.80;1.00
3794;DHT22;1912;51.358;12.282;2023-07-31T13:54:23;22.80;1.00
3794;DHT22;1912;51.358;12.282;2023-07-31T13:56:49;22.70;1.00
3794;DHT22;1912;51.358;12.282;2023-07-31T13:59:14;22.60;1.00
3794;DHT22;1912;51.358;12.282;2023-07-31T14:01:42;22.50;1.00
3794;DHT22;1912;51.358;12.282;2023-07-31T14:04:08;22.40;1.00
3794;DHT22;1912;51.358;12.282;2023-07-31T14:06:34;22.30;1.00
3794;DHT22;1912;51.358;12.282;2023-07-31T14:09:00;22.10;1.00
3794;DHT22;1912;51.358;12.282;2023-07-31T14:11:26;22.10;1.00
3794;DHT22;1912;51.358;12.282;2023-07-31T14:13:52;22.10;1.00
3794;DHT22;1912;51.358;12.282;2023-07-31T14:16:18;22.20;1.00
3794;DHT22;1912;51.358;12.282;2023-07-31T14:18:44;22.10;1.00
3794;DHT22;1912;51.358;12.282;2023-07-31T14:21:11;22.10;1.00
3794;DHT22;1912;51.358;12.282;2023-07-31T14:23:37;22.10;1.00
3794;DHT22;1912;51.358;12.282;2023-07-31T14:26:03;22.20;1.00
3794;DHT22;1912;51.358;12.282;2023-07-31T14:28:28;22.20;1.00
3794;DHT22;1912;51.358;12.282;2023-07-31T14:30:54;22.20;1.00
3794;DHT22;1912;51.358;12.282;2023-07-31T14:33:20;22.30;1.00
3794;DHT22;1912;51.358;12.282;2023-07-31T14:35:45;22.30;1.00
3794;DHT22;1912;51.358;12.282;2023-07-31T14:38:11;22.30;1.00
3794;DHT22;1912;51.358;12.282;2023-07-31T14:40:37;22.40;1.00
3794;DHT22;1912;51.358;12.282;2023-07-31T14:43:04;22.30;1.00
3794;DHT22;1912;51.358;12.282;2023-07-31T14:45:29;22.20;1.00
3794;DHT22;1912;51.358;12.282;2023-07-31T14:47:55;22.20;1.00
3794;DHT22;1912;51.358;12.282;2023-07-31T14:50:21;22.20;1.00
3794;DHT22;1912;51.358;12.282;2023-07-31T14:52:48;22.20;1.00
3794;DHT22;1912;51.358;12.282;2023-07-31T14:55:13;22.10;1.00
3794;DHT22;1912;51.358;12.282;2023-07-31T14:57:39;22.10;1.00
3794;DHT22;1912;51.358;12.282;2023-07-31T15:00:05;22.10;1.00
3794;DHT22;1912;51.358;12.282;2023-07-31T15:02:34;22.00;1.00
3794;DHT22;1912;51.358;12.282;2023-07-31T15:05:00;22.10;1.00
3794;DHT22;1912;51.358;12.282;2023-07-31T15:07:26;22.10;1.00
3794;DHT22;1912;51.358;12.282;2023-07-31T15:09:52;22.20;1.00
3794;DHT22;1912;51.358;12.282;2023-07-31T15:12:18;22.30;1.00
3794;DHT22;1912;51.358;12.282;2023-07-31T15:14:43;22.30;1.00
3794;DHT22;1912;51.358;12.282;2023-07-31T15:17:09;22.30;1.00
3794;DHT22;1912;51.358;12.282;2023-07-31T15:19:35;22.40;1.00
3794;DHT22;1912;51.358;12.282;2023-07-31T15:22:02;22.30;1.00
3794;DHT22;1912;51.358;12.282;2023-07-31T15:24:29;22.20;1.00
3794;DHT22;1912;51.358;12.282;2023-07-31T15:26:54;22.10;1.00
3794;DHT22;1912;51.358;12.282;2023-07-31T15:29:21;22.10;1.00
3794;DHT22;1912;51.358;12.282;2023-07-31T15:31:48;22.00;1.00
3794;DHT22;1912;51.358;12.282;2023-07-31T15:34:14;22.10;1.00
3794;DHT22;1912;51.358;12.282;2023-07-31T15:36:40;22.00;1.00
3794;DHT22;1912;51.358;12.282;2023-07-31T15:39:06;21.90;1.00
3794;DHT22;1912;51.358;12.282;2023-07-31T15:41:36;21.90;1.00
3794;DHT22;1912;51.358;12.282;2023-07-31T15:44:02;21.80;1.00
3794;DHT22;1912;51.358;12.282;2023-07-31T15:46:27;21.90;1.00
3794;DHT22;1912;51.358;12.282;2023-07-31T15:48:53;21.90;1.00
3794;DHT22;1912;51.358;12.282;2023-07-31T15:51:19;21.90;1.00
3794;DHT22;1912;51.358;12.282;2023-07-31T15:53:45;21.90;1.00
3794;DHT22;1912;51.358;12.282;2023-07-31T15:56:10;21.90;1.00
3794;DHT22;1912;51.358;12.282;2023-07-31T15:58:36;21.90;1.00
3794;DHT22;1912;51.358;12.282;2023-07-31T16:01:02;21.90;1.00
3794;DHT22;1912;51.358;12.282;2023-07-31T16:03:27;21.80;1.00
3794;DHT22;1912;51.358;12.282;2023-07-31T16:05:53;21.80;1.00
3794;DHT22;1912;51.358;12.282;2023-07-31T16:08:19;21.80;1.00
3794;DHT22;1912;51.358;12.282;2023-07-31T16:10:44;21.80;1.00
3794;DHT22;1912;51.358;12.282;2023-07-31T16:13:10;21.80;1.00
3794;DHT22;1912;51.358;12.282;2023-07-31T16:15:36;21.70;1.00
3794;DHT22;1912;51.358;12.282;2023-07-31T16:18:01;21.70;1.00
3794;DHT22;1912;51.358;12.282;2023-07-31T16:20:27;21.70;1.00
3794;DHT22;1912;51.358;12.282;2023-07-31T16:22:54;21.70;1.00
3794;DHT22;1912;51.358;12.282;2023-07-31T16:25:19;21.60;1.00
3794;DHT22;1912;51.358;12.282;2023-07-31T16:27:45;21.70;1.00
3794;DHT22;1912;51.358;12.282;2023-07-31T16:30:11;21.70;1.00
3794;DHT22;1912;51.358;12.282;2023-07-31T16:32:36;21.70;1.00
3794;DHT22;1912;51.358;12.282;2023-07-31T16:35:03;21.70;1.00
3794;DHT22;1912;51.358;12.282;2023-07-31T16:37:29;21.60;1.00
3794;DHT22;1912;51.358;12.282;2023-07-31T16:39:55;21.70;1.00
3794;DHT22;1912;51.358;12.282;2023-07-31T16:42:21;21.60;1.00
3794;DHT22;1912;51.358;12.282;2023-07-31T16:44:48;21.70;1.00
3794;DHT22;1912;51.358;12.282;2023-07-31T16:47:14;21.70;1.00
3794;DHT22;1912;51.358;12.282;2023-07-31T16:49:40;21.70;1.00
3794;DHT22;1912;51.358;12.282;2023-07-31T16:52:06;21.70;1.00
3794;DHT22;1912;51.358;12.282;2023-07-31T16:54:31;21.80;1.00
3794;DHT22;1912;51.358;12.282;2023-07-31T16:56:58;21.80;1.00
3794;DHT22;1912;51.358;12.282;2023-07-31T16:59:24;21.80;1.00
3794;DHT22;1912;51.358;12.282;2023-07-31T17:01:50;21.80;1.00
3794;DHT22;1912;51.358;12.282;2023-07-31T17:04:16;21.80;1.00
3794;DHT22;1912;51.358;12.282;2023-07-31T17:06:42;21.80;1.00
3794;DHT22;1912;51.358;12.282;2023-07-31T17:09:08;21.80;1.00
3794;DHT22;1912;51.358;12.282;2023-07-31T17:11:35;21.70;1.00
3794;DHT22;1912;51.358;12.282;2023-07-31T17:14:01;21.70;1.00
3794;DHT22;1912;51.358;12.282;2023-07-31T17:16:32;21.70;1.00
3794;DHT22;1912;51.358;12.282;2023-07-31T17:19:00;21.70;1.00
3794;DHT22;1912;51.358;12.282;2023-07-31T17:21:27;21.70;1.00
3794;DHT22;1912;51.358;12.282;2023-07-31T17:23:53;21.70;1.00
3794;DHT22;1912;51.358;12.282;2023-07-31T17:26:19;21.70;1.00
3794;DHT22;1912;51.358;12.282;2023-07-31T17:28:45;21.70;1.00
3794;DHT22;1912;51.358;12.282;2023-07-31T17:31:11;21.70;1.00
3794;DHT22;1912;51.358;12.282;2023-07-31T17:33:41;21.70;1.00
3794;DHT22;1912;51.358;12.282;2023-07-31T17:36:07;21.70;1.00
3794;DHT22;1912;51.358;12.282;2023-07-31T17:38:32;21.60;1.00
3794;DHT22;1912;51.358;12.282;2023-07-31T17:40:58;21.60;1.00
3794;DHT22;1912;51.358;12.282;2023-07-31T17:43:24;21.60;1.00
3794;DHT22;1912;51.358;12.282;2023-07-31T17:45:50;21.60;1.00
3794;DHT22;1912;51.358;12.282;2023-07-31T17:48:16;21.60;1.00
3794;DHT22;1912;51.358;12.282;2023-07-31T17:50:42;21.60;1.00
3794;DHT22;1912;51.358;12.282;2023-07-31T17:53:08;21.50;1.00
3794;DHT22;1912;51.358;12.282;2023-07-31T17:55:34;21.50;1.00
3794;DHT22;1912;51.358;12.282;2023-07-31T17:58:00;21.50;1.00
3794;DHT22;1912;51.358;12.282;2023-07-31T18:00:25;21.50;1.00
3794;DHT22;1912;51.358;12.282;2023-07-31T18:02:51;21.50;1.00
3794;DHT22;1912;51.358;12.282;2023-07-31T18:05:17;21.50;1.00
3794;DHT22;1912;51.358;12.282;2023-07-31T18:07:42;21.50;1.00
3794;DHT22;1912;51.358;12.282;2023-07-31T18:10:08;21.50;1.00
3794;DHT22;1912;51.358;12.282;2023-07-31T18:12:36;21.50;1.00
3794;DHT22;1912;51.358;12.282;2023-07-31T18:15:03;21.50;1.00
3794;DHT22;1912;51.358;12.282;2023-07-31T18:17:30;21.40;1.00
3794;DHT22;1912;51.358;12.282;2023-07-31T18:19:55;21.40;1.00
3794;DHT22;1912;51.358;12.282;2023-07-31T18:22:22;21.40;1.00
3794;DHT22;1912;51.358;12.282;2023-07-31T18:24:47;21.40;1.00
3794;DHT22;1912;51.358;12.282;2023-07-31T18:27:13;21.30;1.00
3794;DHT22;1912;51.358;12.282;2023-07-31T18:29:40;21.30;1.00
3794;DHT22;1912;51.358;12.282;2023-07-31T18:32:06;21.30;1.00
3794;DHT22;1912;51.358;12.282;2023-07-31T18:34:34;21.30;1.00
3794;DHT22;1912;51.358;12.282;2023-07-31T18:36:59;21.20;1.00
3794;DHT22;1912;51.358;12.282;2023-07-31T18:39:25;21.20;1.00
3794;DHT22;1912;51.358;12.282;2023-07-31T18:41:51;21.20;1.00
3794;DHT22;1912;51.358;12.282;2023-07-31T18:44:16;21.20;1.00
3794;DHT22;1912;51.358;12.282;2023-07-31T18:46:42;21.20;1.00
3794;DHT22;1912;51.358;12.282;2023-07-31T18:49:08;21.10;1.00
3794;DHT22;1912;51.358;12.282;2023-07-31T18:51:33;21.10;1.00
3794;DHT22;1912;51.358;12.282;2023-07-31T18:54:06;21.10;1.00
3794;DHT22;1912;51.358;12.282;2023-07-31T18:56:31;21.00;1.00
3794;DHT22;1912;51.358;12.282;2023-07-31T18:58:57;21.00;1.00
3794;DHT22;1912;51.358;12.282;2023-07-31T19:01:26;21.00;1.00
3794;DHT22;1912;51.358;12.282;2023-07-31T19:03:52;20.90;1.00
3794;DHT22;1912;51.358;12.282;2023-07-31T19:06:18;20.90;1.00
3794;DHT22;1912;51.358;12.282;2023-07-31T19:08:43;20.90;1.00
3794;DHT22;1912;51.358;12.282;2023-07-31T19:11:09;20.80;1.00
3794;DHT22;1912;51.358;12.282;2023-07-31T19:13:38;20.80;1.00
3794;DHT22;1912;51.358;12.282;2023-07-31T19:16:05;20.80;1.00
3794;DHT22;1912;51.358;12.282;2023-07-31T19:18:30;20.80;1.00
3794;DHT22;1912;51.358;12.282;2023-07-31T19:20:56;20.80;1.00
3794;DHT22;1912;51.358;12.282;2023-07-31T19:23:22;20.70;1.00
3794;DHT22;1912;51.358;12.282;2023-07-31T19:25:48;20.70;1.00
3794;DHT22;1912;51.358;12.282;2023-07-31T19:28:14;20.70;1.00
3794;DHT22;1912;51.358;12.282;2023-07-31T19:30:40;20.60;1.00
3794;DHT22;1912;51.358;12.282;2023-07-31T19:33:06;20.60;1.00
3794;DHT22;1912;51.358;12.282;2023-07-31T19:35:32;20.60;1.00
3794;DHT22;1912;51.358;12.282;2023-07-31T19:37:58;20.60;1.00
3794;DHT22;1912;51.358;12.282;2023-07-31T19:40:23;20.60;1.00
3794;DHT22;1912;51.358;12.282;2023-07-31T19:42:51;20.60;1.00
3794;DHT22;1912;51.358;12.282;2023-07-31T19:45:25;20.60;1.00
3794;DHT22;1912;51.358;12.282;2023-07-31T19:47:51;20.60;1.00
3794;DHT22;1912;51.358;12.282;2023-07-31T19:50:17;20.60;1.00